sensor_id;sensor_type;location;lat;lon;timestamp;P1;durP1;ratioP1;P2;durP2;ratioP2
54189;SDS011;40340;53.208;6.582;2022-10-16T00:02:24;6.43;;;2.08;;
54189;SDS011;40340;53.208;6.582;2022-10-16T00:04:49;9.25;;;2.08;;
54189;SDS011;40340;53.208;6.582;2022-10-16T00:07:15;7.00;;;2.05;;
54189;SDS011;40340;53.208;6.582;2022-10-16T00:09:40;10.70;;;2.22;;
54189;SDS011;40340;53.208;6.582;2022-10-16T00:12:06;5.35;;;2.00;;
54189;SDS011;40340;53.208;6.582;2022-10-16T00:14:32;6.78;;;1.80;;
54189;SDS011;40340;53.208;6.582;2022-10-16T00:16:58;4.80;;;2.08;;
54189;SDS011;40340;53.208;6.582;2022-10-16T00:19:23;8.45;;;2.20;;
54189;SDS011;40340;53.208;6.582;2022-10-16T00:21:49;8.73;;;2.35;;
54189;SDS011;40340;53.208;6.582;2022-10-16T00:24:15;7.38;;;1.90;;
54189;SDS011;40340;53.208;6.582;2022-10-16T00:26:40;4.65;;;1.88;;
54189;SDS011;40340;53.208;6.582;2022-10-16T00:29:06;10.43;;;2.03;;
54189;SDS011;40340;53.208;6.582;2022-10-16T00:31:32;10.10;;;2.00;;
54189;SDS011;40340;53.208;6.582;2022-10-16T00:33:58;6.57;;;1.75;;
54189;SDS011;40340;53.208;6.582;2022-10-16T00:36:25;7.40;;;2.30;;
54189;SDS011;40340;53.208;6.582;2022-10-16T00:38:52;9.20;;;2.33;;
54189;SDS011;40340;53.208;6.582;2022-10-16T00:41:19;7.45;;;2.15;;
54189;SDS011;40340;53.208;6.582;2022-10-16T00:43:50;6.25;;;2.20;;
54189;SDS011;40340;53.208;6.582;2022-10-16T00:48:48;6.82;;;1.80;;
54189;SDS011;40340;53.208;6.582;2022-10-16T00:51:19;4.40;;;1.70;;
54189;SDS011;40340;53.208;6.582;2022-10-16T00:53:48;9.20;;;2.10;;
54189;SDS011;40340;53.208;6.582;2022-10-16T00:56:14;10.23;;;2.20;;
54189;SDS011;40340;53.208;6.582;2022-10-16T00:58:40;7.30;;;1.90;;
54189;SDS011;40340;53.208;6.582;2022-10-16T01:01:06;9.40;;;2.28;;
54189;SDS011;40340;53.208;6.582;2022-10-16T01:03:33;9.15;;;2.13;;
54189;SDS011;40340;53.208;6.582;2022-10-16T01:06:12;6.53;;;1.70;;
54189;SDS011;40340;53.208;6.582;2022-10-16T01:11:33;6.35;;;1.90;;
54189;SDS011;40340;53.208;6.582;2022-10-16T01:15:04;7.88;;;1.80;;
54189;SDS011;40340;53.208;6.582;2022-10-16T01:17:28;8.65;;;1.50;;
54189;SDS011;40340;53.208;6.582;2022-10-16T01:20:18;6.28;;;1.45;;
54189;SDS011;40340;53.208;6.582;2022-10-16T01:28:36;5.65;;;1.67;;
54189;SDS011;40340;53.208;6.582;2022-10-16T01:31:10;5.18;;;1.48;;
54189;SDS011;40340;53.208;6.582;2022-10-16T01:33:40;5.93;;;1.50;;
54189;SDS011;40340;53.208;6.582;2022-10-16T01:36:13;6.80;;;1.48;;
54189;SDS011;40340;53.208;6.582;2022-10-16T01:38:43;5.22;;;1.67;;
54189;SDS011;40340;53.208;6.582;2022-10-16T01:41:22;8.18;;;1.92;;
54189;SDS011;40340;53.208;6.582;2022-10-16T01:43:57;5.95;;;1.60;;
54189;SDS011;40340;53.208;6.582;2022-10-16T01:46:30;5.13;;;1.65;;
54189;SDS011;40340;53.208;6.582;2022-10-16T01:48:57;10.10;;;1.65;;
54189;SDS011;40340;53.208;6.582;2022-10-16T01:51:25;5.65;;;1.60;;
54189;SDS011;40340;53.208;6.582;2022-10-16T01:53:53;6.07;;;1.80;;
54189;SDS011;40340;53.208;6.582;2022-10-16T01:56:22;5.70;;;1.60;;
54189;SDS011;40340;53.208;6.582;2022-10-16T01:59:00;4.88;;;1.52;;
54189;SDS011;40340;53.208;6.582;2022-10-16T02:01:33;8.75;;;1.80;;
54189;SDS011;40340;53.208;6.582;2022-10-16T02:04:03;7.05;;;1.85;;
54189;SDS011;40340;53.208;6.582;2022-10-16T02:06:32;4.57;;;1.80;;
54189;SDS011;40340;53.208;6.582;2022-10-16T02:08:58;4.50;;;1.77;;
54189;SDS011;40340;53.208;6.582;2022-10-16T02:11:24;7.10;;;2.00;;
54189;SDS011;40340;53.208;6.582;2022-10-16T02:13:51;6.22;;;2.10;;
54189;SDS011;40340;53.208;6.582;2022-10-16T02:16:26;6.68;;;1.80;;
54189;SDS011;40340;53.208;6.582;2022-10-16T02:18:58;5.43;;;2.25;;
54189;SDS011;40340;53.208;6.582;2022-10-16T02:26:53;7.57;;;2.03;;
54189;SDS011;40340;53.208;6.582;2022-10-16T02:29:27;9.13;;;2.30;;
54189;SDS011;40340;53.208;6.582;2022-10-16T02:31:58;5.03;;;1.67;;
54189;SDS011;40340;53.208;6.582;2022-10-16T02:34:26;5.80;;;1.90;;
54189;SDS011;40340;53.208;6.582;2022-10-16T02:36:55;6.30;;;2.00;;
54189;SDS011;40340;53.208;6.582;2022-10-16T02:39:23;8.85;;;1.70;;
54189;SDS011;40340;53.208;6.582;2022-10-16T02:41:49;5.40;;;1.70;;
54189;SDS011;40340;53.208;6.582;2022-10-16T02:44:14;5.15;;;1.80;;
54189;SDS011;40340;53.208;6.582;2022-10-16T02:46:40;5.63;;;1.55;;
54189;SDS011;40340;53.208;6.582;2022-10-16T02:49:06;4.90;;;1.88;;
54189;SDS011;40340;53.208;6.582;2022-10-16T02:51:31;6.17;;;1.67;;
54189;SDS011;40340;53.208;6.582;2022-10-16T02:53:57;6.10;;;2.10;;
54189;SDS011;40340;53.208;6.582;2022-10-16T02:56:22;5.95;;;1.60;;
54189;SDS011;40340;53.208;6.582;2022-10-16T02:58:48;5.30;;;1.73;;
54189;SDS011;40340;53.208;6.582;2022-10-16T03:01:14;5.47;;;2.00;;
54189;SDS011;40340;53.208;6.582;2022-10-16T03:03:41;4.50;;;1.70;;
54189;SDS011;40340;53.208;6.582;2022-10-16T03:06:07;5.95;;;1.73;;
54189;SDS011;40340;53.208;6.582;2022-10-16T03:08:33;7.40;;;1.83;;
54189;SDS011;40340;53.208;6.582;2022-10-16T03:10:58;6.82;;;2.03;;
54189;SDS011;40340;53.208;6.582;2022-10-16T03:13:24;4.90;;;1.42;;
54189;SDS011;40340;53.208;6.582;2022-10-16T03:15:50;6.15;;;1.42;;
54189;SDS011;40340;53.208;6.582;2022-10-16T03:18:15;5.35;;;1.52;;
54189;SDS011;40340;53.208;6.582;2022-10-16T03:20:42;3.92;;;1.33;;
54189;SDS011;40340;53.208;6.582;2022-10-16T03:23:08;2.92;;;1.60;;
54189;SDS011;40340;53.208;6.582;2022-10-16T03:25:33;2.35;;;1.30;;
54189;SDS011;40340;53.208;6.582;2022-10-16T03:27:59;5.00;;;1.23;;
54189;SDS011;40340;53.208;6.582;2022-10-16T03:30:25;4.70;;;1.30;;
54189;SDS011;40340;53.208;6.582;2022-10-16T03:32:50;5.03;;;1.45;;
54189;SDS011;40340;53.208;6.582;2022-10-16T03:35:19;7.57;;;1.80;;
54189;SDS011;40340;53.208;6.582;2022-10-16T03:37:48;5.30;;;1.52;;
54189;SDS011;40340;53.208;6.582;2022-10-16T03:40:14;2.92;;;1.60;;
54189;SDS011;40340;53.208;6.582;2022-10-16T03:42:40;3.70;;;1.40;;
54189;SDS011;40340;53.208;6.582;2022-10-16T03:45:06;6.30;;;1.70;;
54189;SDS011;40340;53.208;6.582;2022-10-16T03:47:32;5.78;;;1.70;;
54189;SDS011;40340;53.208;6.582;2022-10-16T03:49:58;4.03;;;1.98;;
54189;SDS011;40340;53.208;6.582;2022-10-16T03:52:24;4.07;;;1.50;;
54189;SDS011;40340;53.208;6.582;2022-10-16T03:54:50;3.13;;;1.58;;
54189;SDS011;40340;53.208;6.582;2022-10-16T03:57:16;3.42;;;1.40;;
54189;SDS011;40340;53.208;6.582;2022-10-16T03:59:42;5.50;;;1.90;;
54189;SDS011;40340;53.208;6.582;2022-10-16T04:02:08;4.22;;;1.85;;
54189;SDS011;40340;53.208;6.582;2022-10-16T04:04:34;6.18;;;1.70;;
54189;SDS011;40340;53.208;6.582;2022-10-16T04:06:59;2.60;;;1.50;;
54189;SDS011;40340;53.208;6.582;2022-10-16T04:09:25;3.93;;;1.70;;
54189;SDS011;40340;53.208;6.582;2022-10-16T04:11:51;5.45;;;1.85;;
54189;SDS011;40340;53.208;6.582;2022-10-16T04:14:16;3.83;;;1.83;;
54189;SDS011;40340;53.208;6.582;2022-10-16T04:16:42;5.78;;;1.88;;
54189;SDS011;40340;53.208;6.582;2022-10-16T04:19:08;4.68;;;1.45;;
54189;SDS011;40340;53.208;6.582;2022-10-16T04:21:34;5.05;;;1.52;;
54189;SDS011;40340;53.208;6.582;2022-10-16T04:24:01;6.60;;;1.77;;
54189;SDS011;40340;53.208;6.582;2022-10-16T04:26:26;4.50;;;1.75;;
54189;SDS011;40340;53.208;6.582;2022-10-16T04:28:52;3.63;;;1.67;;
54189;SDS011;40340;53.208;6.582;2022-10-16T04:31:17;4.85;;;2.00;;
54189;SDS011;40340;53.208;6.582;2022-10-16T04:33:43;5.25;;;1.88;;
54189;SDS011;40340;53.208;6.582;2022-10-16T04:36:08;7.47;;;1.70;;
54189;SDS011;40340;53.208;6.582;2022-10-16T04:38:34;6.95;;;2.22;;
54189;SDS011;40340;53.208;6.582;2022-10-16T04:41:02;4.82;;;1.77;;
54189;SDS011;40340;53.208;6.582;2022-10-16T04:43:28;6.05;;;1.98;;
54189;SDS011;40340;53.208;6.582;2022-10-16T04:45:54;4.18;;;1.92;;
54189;SDS011;40340;53.208;6.582;2022-10-16T04:48:20;3.58;;;1.55;;
54189;SDS011;40340;53.208;6.582;2022-10-16T04:50:45;3.67;;;1.88;;
54189;SDS011;40340;53.208;6.582;2022-10-16T04:53:11;6.03;;;1.85;;
54189;SDS011;40340;53.208;6.582;2022-10-16T04:55:37;6.82;;;1.95;;
54189;SDS011;40340;53.208;6.582;2022-10-16T04:58:03;5.90;;;2.20;;
54189;SDS011;40340;53.208;6.582;2022-10-16T05:00:29;6.28;;;1.73;;
54189;SDS011;40340;53.208;6.582;2022-10-16T05:02:54;5.15;;;1.98;;
54189;SDS011;40340;53.208;6.582;2022-10-16T05:05:20;3.90;;;1.60;;
54189;SDS011;40340;53.208;6.582;2022-10-16T05:07:46;6.13;;;1.98;;
54189;SDS011;40340;53.208;6.582;2022-10-16T05:10:12;5.63;;;1.85;;
54189;SDS011;40340;53.208;6.582;2022-10-16T05:12:38;5.35;;;1.92;;
54189;SDS011;40340;53.208;6.582;2022-10-16T05:15:04;8.20;;;2.13;;
54189;SDS011;40340;53.208;6.582;2022-10-16T05:17:30;4.55;;;1.92;;
54189;SDS011;40340;53.208;6.582;2022-10-16T05:19:55;4.70;;;1.80;;
54189;SDS011;40340;53.208;6.582;2022-10-16T05:22:21;5.85;;;1.65;;
54189;SDS011;40340;53.208;6.582;2022-10-16T05:24:47;4.80;;;2.05;;
54189;SDS011;40340;53.208;6.582;2022-10-16T05:27:12;5.05;;;2.03;;
54189;SDS011;40340;53.208;6.582;2022-10-16T05:29:44;4.95;;;1.85;;
54189;SDS011;40340;53.208;6.582;2022-10-16T05:32:13;3.35;;;2.08;;
54189;SDS011;40340;53.208;6.582;2022-10-16T05:34:40;5.45;;;2.35;;
54189;SDS011;40340;53.208;6.582;2022-10-16T05:37:05;5.18;;;2.10;;
54189;SDS011;40340;53.208;6.582;2022-10-16T05:39:31;6.82;;;2.00;;
54189;SDS011;40340;53.208;6.582;2022-10-16T05:41:57;5.40;;;2.30;;
54189;SDS011;40340;53.208;6.582;2022-10-16T05:44:22;5.45;;;2.28;;
54189;SDS011;40340;53.208;6.582;2022-10-16T05:46:48;5.90;;;2.58;;
54189;SDS011;40340;53.208;6.582;2022-10-16T05:49:14;7.25;;;2.25;;
54189;SDS011;40340;53.208;6.582;2022-10-16T05:51:39;8.13;;;2.30;;
54189;SDS011;40340;53.208;6.582;2022-10-16T05:54:06;4.55;;;2.17;;
54189;SDS011;40340;53.208;6.582;2022-10-16T05:56:31;5.10;;;2.42;;
54189;SDS011;40340;53.208;6.582;2022-10-16T05:58:57;4.40;;;2.15;;
54189;SDS011;40340;53.208;6.582;2022-10-16T06:01:22;6.13;;;2.35;;
54189;SDS011;40340;53.208;6.582;2022-10-16T06:03:49;7.95;;;2.50;;
54189;SDS011;40340;53.208;6.582;2022-10-16T06:08:43;6.07;;;2.30;;
54189;SDS011;40340;53.208;6.582;2022-10-16T06:11:11;7.05;;;2.35;;
54189;SDS011;40340;53.208;6.582;2022-10-16T06:13:38;4.70;;;2.47;;
54189;SDS011;40340;53.208;6.582;2022-10-16T06:16:06;4.88;;;2.60;;
54189;SDS011;40340;53.208;6.582;2022-10-16T06:18:32;5.43;;;2.57;;
54189;SDS011;40340;53.208;6.582;2022-10-16T06:20:58;3.53;;;2.40;;
54189;SDS011;40340;53.208;6.582;2022-10-16T06:23:24;7.00;;;2.83;;
54189;SDS011;40340;53.208;6.582;2022-10-16T06:25:50;8.88;;;3.13;;
54189;SDS011;40340;53.208;6.582;2022-10-16T06:28:16;10.60;;;3.15;;
54189;SDS011;40340;53.208;6.582;2022-10-16T06:30:42;5.50;;;2.75;;
54189;SDS011;40340;53.208;6.582;2022-10-16T06:33:11;8.02;;;2.90;;
54189;SDS011;40340;53.208;6.582;2022-10-16T06:35:37;6.63;;;2.60;;
54189;SDS011;40340;53.208;6.582;2022-10-16T06:38:02;5.97;;;2.35;;
54189;SDS011;40340;53.208;6.582;2022-10-16T06:40:28;5.90;;;2.92;;
54189;SDS011;40340;53.208;6.582;2022-10-16T06:42:57;6.10;;;2.67;;
54189;SDS011;40340;53.208;6.582;2022-10-16T06:45:22;4.97;;;2.55;;
54189;SDS011;40340;53.208;6.582;2022-10-16T06:47:48;6.07;;;2.55;;
54189;SDS011;40340;53.208;6.582;2022-10-16T06:50:13;8.48;;;3.00;;
54189;SDS011;40340;53.208;6.582;2022-10-16T06:52:39;5.82;;;2.58;;
54189;SDS011;40340;53.208;6.582;2022-10-16T06:55:05;8.38;;;2.83;;
54189;SDS011;40340;53.208;6.582;2022-10-16T06:57:31;6.78;;;2.70;;
54189;SDS011;40340;53.208;6.582;2022-10-16T06:59:56;5.57;;;2.13;;
54189;SDS011;40340;53.208;6.582;2022-10-16T07:02:22;8.18;;;2.70;;
54189;SDS011;40340;53.208;6.582;2022-10-16T07:04:48;14.10;;;2.38;;
54189;SDS011;40340;53.208;6.582;2022-10-16T07:07:13;7.57;;;2.60;;
54189;SDS011;40340;53.208;6.582;2022-10-16T07:09:39;10.10;;;2.47;;
54189;SDS011;40340;53.208;6.582;2022-10-16T07:12:05;6.43;;;2.40;;
54189;SDS011;40340;53.208;6.582;2022-10-16T07:14:31;7.60;;;2.50;;
54189;SDS011;40340;53.208;6.582;2022-10-16T07:16:57;7.30;;;2.72;;
54189;SDS011;40340;53.208;6.582;2022-10-16T07:19:22;7.07;;;2.60;;
54189;SDS011;40340;53.208;6.582;2022-10-16T07:21:48;12.77;;;2.72;;
54189;SDS011;40340;53.208;6.582;2022-10-16T07:24:15;7.70;;;2.50;;
54189;SDS011;40340;53.208;6.582;2022-10-16T07:26:42;8.15;;;2.50;;
54189;SDS011;40340;53.208;6.582;2022-10-16T07:29:13;6.18;;;2.40;;
54189;SDS011;40340;53.208;6.582;2022-10-16T07:31:42;6.43;;;2.55;;
54189;SDS011;40340;53.208;6.582;2022-10-16T07:34:08;7.05;;;2.50;;
54189;SDS011;40340;53.208;6.582;2022-10-16T07:39:00;6.75;;;2.30;;
54189;SDS011;40340;53.208;6.582;2022-10-16T07:41:26;8.57;;;2.42;;
54189;SDS011;40340;53.208;6.582;2022-10-16T07:43:53;9.75;;;2.40;;
54189;SDS011;40340;53.208;6.582;2022-10-16T07:46:19;6.97;;;2.50;;
54189;SDS011;40340;53.208;6.582;2022-10-16T07:48:47;5.38;;;2.75;;
54189;SDS011;40340;53.208;6.582;2022-10-16T07:51:14;6.65;;;2.58;;
54189;SDS011;40340;53.208;6.582;2022-10-16T07:53:41;4.95;;;2.20;;
54189;SDS011;40340;53.208;6.582;2022-10-16T07:56:07;7.93;;;2.30;;
54189;SDS011;40340;53.208;6.582;2022-10-16T07:58:33;6.20;;;2.72;;
54189;SDS011;40340;53.208;6.582;2022-10-16T08:01:06;5.80;;;2.28;;
54189;SDS011;40340;53.208;6.582;2022-10-16T08:03:36;4.78;;;2.42;;
54189;SDS011;40340;53.208;6.582;2022-10-16T08:06:02;7.88;;;2.60;;
54189;SDS011;40340;53.208;6.582;2022-10-16T08:08:29;5.47;;;2.20;;
54189;SDS011;40340;53.208;6.582;2022-10-16T08:10:55;7.22;;;2.58;;
54189;SDS011;40340;53.208;6.582;2022-10-16T08:13:21;6.20;;;2.80;;
54189;SDS011;40340;53.208;6.582;2022-10-16T08:15:47;9.02;;;2.33;;
54189;SDS011;40340;53.208;6.582;2022-10-16T08:18:13;6.68;;;2.47;;
54189;SDS011;40340;53.208;6.582;2022-10-16T08:20:39;4.97;;;2.38;;
54189;SDS011;40340;53.208;6.582;2022-10-16T08:23:06;5.13;;;2.35;;
54189;SDS011;40340;53.208;6.582;2022-10-16T08:25:33;6.18;;;2.55;;
54189;SDS011;40340;53.208;6.582;2022-10-16T08:28:00;5.93;;;2.65;;
54189;SDS011;40340;53.208;6.582;2022-10-16T08:30:27;8.30;;;2.22;;
54189;SDS011;40340;53.208;6.582;2022-10-16T08:32:53;6.72;;;2.33;;
54189;SDS011;40340;53.208;6.582;2022-10-16T08:35:18;5.00;;;2.05;;
54189;SDS011;40340;53.208;6.582;2022-10-16T08:37:44;6.23;;;2.20;;
54189;SDS011;40340;53.208;6.582;2022-10-16T08:40:16;5.97;;;2.25;;
54189;SDS011;40340;53.208;6.582;2022-10-16T08:48:15;4.80;;;1.65;;
54189;SDS011;40340;53.208;6.582;2022-10-16T08:50:46;6.85;;;1.48;;
54189;SDS011;40340;53.208;6.582;2022-10-16T08:53:15;6.38;;;1.60;;
54189;SDS011;40340;53.208;6.582;2022-10-16T08:55:51;4.50;;;1.48;;
54189;SDS011;40340;53.208;6.582;2022-10-16T08:58:19;5.97;;;1.30;;
54189;SDS011;40340;53.208;6.582;2022-10-16T09:00:55;9.52;;;1.90;;
54189;SDS011;40340;53.208;6.582;2022-10-16T09:03:25;5.40;;;1.38;;
54189;SDS011;40340;53.208;6.582;2022-10-16T09:06:02;5.28;;;1.45;;
54189;SDS011;40340;53.208;6.582;2022-10-16T09:08:42;5.88;;;1.38;;
54189;SDS011;40340;53.208;6.582;2022-10-16T09:17:20;5.38;;;1.50;;
54189;SDS011;40340;53.208;6.582;2022-10-16T09:22:40;8.00;;;1.60;;
54189;SDS011;40340;53.208;6.582;2022-10-16T09:25:19;9.03;;;1.87;;
54189;SDS011;40340;53.208;6.582;2022-10-16T09:27:50;5.25;;;1.60;;
54189;SDS011;40340;53.208;6.582;2022-10-16T09:30:19;7.47;;;1.65;;
54189;SDS011;40340;53.208;6.582;2022-10-16T09:32:47;8.77;;;1.88;;
54189;SDS011;40340;53.208;6.582;2022-10-16T09:35:22;6.28;;;2.00;;
54189;SDS011;40340;53.208;6.582;2022-10-16T09:38:09;7.03;;;1.70;;
54189;SDS011;40340;53.208;6.582;2022-10-16T09:43:16;8.25;;;1.67;;
54189;SDS011;40340;53.208;6.582;2022-10-16T09:46:02;8.57;;;1.70;;
54189;SDS011;40340;53.208;6.582;2022-10-16T09:48:37;8.13;;;2.33;;
54189;SDS011;40340;53.208;6.582;2022-10-16T09:53:43;5.78;;;1.63;;
54189;SDS011;40340;53.208;6.582;2022-10-16T09:56:10;10.20;;;1.90;;
54189;SDS011;40340;53.208;6.582;2022-10-16T09:58:43;10.13;;;1.73;;
54189;SDS011;40340;53.208;6.582;2022-10-16T10:01:18;9.13;;;2.20;;
54189;SDS011;40340;53.208;6.582;2022-10-16T10:03:45;11.30;;;2.22;;
54189;SDS011;40340;53.208;6.582;2022-10-16T10:06:23;10.75;;;2.05;;
54189;SDS011;40340;53.208;6.582;2022-10-16T10:08:54;12.18;;;1.88;;
54189;SDS011;40340;53.208;6.582;2022-10-16T10:11:36;14.70;;;2.22;;
54189;SDS011;40340;53.208;6.582;2022-10-16T10:14:06;9.27;;;1.90;;
54189;SDS011;40340;53.208;6.582;2022-10-16T10:19:36;9.70;;;1.58;;
54189;SDS011;40340;53.208;6.582;2022-10-16T10:22:30;14.43;;;2.10;;
54189;SDS011;40340;53.208;6.582;2022-10-16T10:27:42;12.13;;;2.60;;
54189;SDS011;40340;53.208;6.582;2022-10-16T10:38:50;10.43;;;2.50;;
54189;SDS011;40340;53.208;6.582;2022-10-16T10:41:27;12.88;;;2.00;;
54189;SDS011;40340;53.208;6.582;2022-10-16T10:55:21;10.13;;;2.30;;
54189;SDS011;40340;53.208;6.582;2022-10-16T11:01:14;13.00;;;2.03;;
54189;SDS011;40340;53.208;6.582;2022-10-16T11:06:26;10.30;;;2.25;;
54189;SDS011;40340;53.208;6.582;2022-10-16T11:11:38;11.95;;;2.22;;
54189;SDS011;40340;53.208;6.582;2022-10-16T11:14:18;9.15;;;2.10;;
54189;SDS011;40340;53.208;6.582;2022-10-16T11:25:11;8.75;;;1.83;;
54189;SDS011;40340;53.208;6.582;2022-10-16T11:30:20;10.38;;;1.90;;
54189;SDS011;40340;53.208;6.582;2022-10-16T11:38:02;10.85;;;2.22;;
54189;SDS011;40340;53.208;6.582;2022-10-16T11:40:37;11.50;;;2.55;;
54189;SDS011;40340;53.208;6.582;2022-10-16T11:43:24;12.13;;;2.45;;
54189;SDS011;40340;53.208;6.582;2022-10-16T11:45:57;9.90;;;1.67;;
54189;SDS011;40340;53.208;6.582;2022-10-16T11:54:15;8.82;;;1.85;;
54189;SDS011;40340;53.208;6.582;2022-10-16T11:56:54;13.27;;;2.30;;
54189;SDS011;40340;53.208;6.582;2022-10-16T11:59:28;10.82;;;1.83;;
54189;SDS011;40340;53.208;6.582;2022-10-16T12:02:18;8.13;;;1.77;;
54189;SDS011;40340;53.208;6.582;2022-10-16T12:07:36;6.97;;;1.80;;
54189;SDS011;40340;53.208;6.582;2022-10-16T12:10:45;8.38;;;1.65;;
54189;SDS011;40340;53.208;6.582;2022-10-16T12:13:04;8.68;;;1.92;;
54189;SDS011;40340;53.208;6.582;2022-10-16T12:15:50;9.73;;;1.85;;
54189;SDS011;40340;53.208;6.582;2022-10-16T12:18:20;9.13;;;1.97;;
54189;SDS011;40340;53.208;6.582;2022-10-16T12:20:54;10.73;;;1.75;;
54189;SDS011;40340;53.208;6.582;2022-10-16T12:23:23;13.20;;;2.30;;
54189;SDS011;40340;53.208;6.582;2022-10-16T12:25:54;10.90;;;1.75;;
54189;SDS011;40340;53.208;6.582;2022-10-16T12:28:22;14.77;;;2.30;;
54189;SDS011;40340;53.208;6.582;2022-10-16T12:30:59;8.82;;;1.88;;
54189;SDS011;40340;53.208;6.582;2022-10-16T12:33:34;15.65;;;2.95;;
54189;SDS011;40340;53.208;6.582;2022-10-16T12:36:03;15.50;;;2.45;;
54189;SDS011;40340;53.208;6.582;2022-10-16T12:38:46;12.77;;;2.28;;
54189;SDS011;40340;53.208;6.582;2022-10-16T12:41:23;14.18;;;2.42;;
54189;SDS011;40340;53.208;6.582;2022-10-16T12:43:52;9.70;;;2.22;;
54189;SDS011;40340;53.208;6.582;2022-10-16T12:48:43;15.03;;;2.33;;
54189;SDS011;40340;53.208;6.582;2022-10-16T12:51:11;8.68;;;1.70;;
54189;SDS011;40340;53.208;6.582;2022-10-16T12:53:45;11.20;;;2.13;;
54189;SDS011;40340;53.208;6.582;2022-10-16T12:56:15;15.93;;;2.07;;
54189;SDS011;40340;53.208;6.582;2022-10-16T13:04:22;11.15;;;2.22;;
54189;SDS011;40340;53.208;6.582;2022-10-16T13:07:21;11.05;;;2.10;;
54189;SDS011;40340;53.208;6.582;2022-10-16T13:12:46;8.65;;;2.05;;
54189;SDS011;40340;53.208;6.582;2022-10-16T13:15:32;12.13;;;2.00;;
54189;SDS011;40340;53.208;6.582;2022-10-16T13:18:29;10.15;;;2.10;;
54189;SDS011;40340;53.208;6.582;2022-10-16T13:24:14;12.20;;;2.20;;
54189;SDS011;40340;53.208;6.582;2022-10-16T13:27:05;11.35;;;1.98;;
54189;SDS011;40340;53.208;6.582;2022-10-16T13:29:48;13.50;;;2.58;;
54189;SDS011;40340;53.208;6.582;2022-10-16T13:32:20;8.98;;;1.85;;
54189;SDS011;40340;53.208;6.582;2022-10-16T13:37:24;14.07;;;2.20;;
54189;SDS011;40340;53.208;6.582;2022-10-16T13:39:50;8.00;;;2.42;;
54189;SDS011;40340;53.208;6.582;2022-10-16T13:42:28;8.10;;;1.90;;
54189;SDS011;40340;53.208;6.582;2022-10-16T13:44:55;12.27;;;2.42;;
54189;SDS011;40340;53.208;6.582;2022-10-16T13:47:22;8.70;;;2.05;;
54189;SDS011;40340;53.208;6.582;2022-10-16T13:52:45;12.80;;;2.20;;
54189;SDS011;40340;53.208;6.582;2022-10-16T13:57:41;10.05;;;1.80;;
54189;SDS011;40340;53.208;6.582;2022-10-16T14:00:23;13.88;;;2.03;;
54189;SDS011;40340;53.208;6.582;2022-10-16T14:03:05;14.20;;;2.60;;
54189;SDS011;40340;53.208;6.582;2022-10-16T14:05:42;9.05;;;2.25;;
54189;SDS011;40340;53.208;6.582;2022-10-16T14:08:16;14.38;;;2.45;;
54189;SDS011;40340;53.208;6.582;2022-10-16T14:10:42;13.33;;;2.30;;
54189;SDS011;40340;53.208;6.582;2022-10-16T14:13:16;16.20;;;2.72;;
54189;SDS011;40340;53.208;6.582;2022-10-16T14:15:46;14.95;;;2.28;;
54189;SDS011;40340;53.208;6.582;2022-10-16T14:18:16;9.40;;;2.03;;
54189;SDS011;40340;53.208;6.582;2022-10-16T14:20:45;11.73;;;2.10;;
54189;SDS011;40340;53.208;6.582;2022-10-16T14:23:21;9.33;;;2.17;;
54189;SDS011;40340;53.208;6.582;2022-10-16T14:26:05;12.23;;;2.65;;
54189;SDS011;40340;53.208;6.582;2022-10-16T14:28:40;14.98;;;2.33;;
54189;SDS011;40340;53.208;6.582;2022-10-16T14:33:44;9.57;;;2.47;;
54189;SDS011;40340;53.208;6.582;2022-10-16T14:38:40;11.45;;;2.20;;
54189;SDS011;40340;53.208;6.582;2022-10-16T14:41:08;14.35;;;2.42;;
54189;SDS011;40340;53.208;6.582;2022-10-16T14:43:37;14.68;;;2.63;;
54189;SDS011;40340;53.208;6.582;2022-10-16T14:46:07;10.63;;;2.38;;
54189;SDS011;40340;53.208;6.582;2022-10-16T14:48:43;12.32;;;2.85;;
54189;SDS011;40340;53.208;6.582;2022-10-16T14:51:14;11.07;;;2.75;;
54189;SDS011;40340;53.208;6.582;2022-10-16T14:53:41;17.92;;;2.97;;
54189;SDS011;40340;53.208;6.582;2022-10-16T14:56:07;11.50;;;2.43;;
54189;SDS011;40340;53.208;6.582;2022-10-16T14:58:39;11.65;;;2.45;;
54189;SDS011;40340;53.208;6.582;2022-10-16T15:01:05;17.67;;;2.43;;
54189;SDS011;40340;53.208;6.582;2022-10-16T15:05:57;13.48;;;2.03;;
54189;SDS011;40340;53.208;6.582;2022-10-16T15:08:22;13.07;;;2.50;;
54189;SDS011;40340;53.208;6.582;2022-10-16T15:10:48;11.30;;;2.23;;
54189;SDS011;40340;53.208;6.582;2022-10-16T15:13:14;11.97;;;2.50;;
54189;SDS011;40340;53.208;6.582;2022-10-16T15:15:41;10.97;;;2.23;;
54189;SDS011;40340;53.208;6.582;2022-10-16T15:18:07;17.00;;;3.15;;
54189;SDS011;40340;53.208;6.582;2022-10-16T15:20:34;8.13;;;2.30;;
54189;SDS011;40340;53.208;6.582;2022-10-16T15:23:12;10.57;;;2.35;;
54189;SDS011;40340;53.208;6.582;2022-10-16T15:25:44;7.57;;;1.90;;
54189;SDS011;40340;53.208;6.582;2022-10-16T15:28:12;14.25;;;2.70;;
54189;SDS011;40340;53.208;6.582;2022-10-16T15:30:38;11.77;;;2.08;;
54189;SDS011;40340;53.208;6.582;2022-10-16T15:33:08;10.55;;;2.17;;
54189;SDS011;40340;53.208;6.582;2022-10-16T15:35:38;10.57;;;2.45;;
54189;SDS011;40340;53.208;6.582;2022-10-16T15:38:03;10.87;;;2.23;;
54189;SDS011;40340;53.208;6.582;2022-10-16T15:40:29;13.13;;;2.43;;
54189;SDS011;40340;53.208;6.582;2022-10-16T15:42:55;14.90;;;2.30;;
54189;SDS011;40340;53.208;6.582;2022-10-16T15:45:20;8.10;;;2.00;;
54189;SDS011;40340;53.208;6.582;2022-10-16T15:47:46;12.63;;;2.53;;
54189;SDS011;40340;53.208;6.582;2022-10-16T15:50:12;7.97;;;2.15;;
54189;SDS011;40340;53.208;6.582;2022-10-16T15:52:39;13.23;;;2.50;;
54189;SDS011;40340;53.208;6.582;2022-10-16T15:55:07;15.27;;;2.72;;
54189;SDS011;40340;53.208;6.582;2022-10-16T15:57:33;10.65;;;2.17;;
54189;SDS011;40340;53.208;6.582;2022-10-16T15:59:59;10.27;;;2.20;;
54189;SDS011;40340;53.208;6.582;2022-10-16T16:02:24;9.97;;;2.20;;
54189;SDS011;40340;53.208;6.582;2022-10-16T16:04:50;9.73;;;2.13;;
54189;SDS011;40340;53.208;6.582;2022-10-16T16:07:16;11.97;;;2.63;;
54189;SDS011;40340;53.208;6.582;2022-10-16T16:09:41;12.17;;;2.93;;
54189;SDS011;40340;53.208;6.582;2022-10-16T16:12:08;8.50;;;2.20;;
54189;SDS011;40340;53.208;6.582;2022-10-16T16:14:34;10.63;;;2.13;;
54189;SDS011;40340;53.208;6.582;2022-10-16T16:17:00;7.83;;;2.40;;
54189;SDS011;40340;53.208;6.582;2022-10-16T16:19:26;10.90;;;2.45;;
54189;SDS011;40340;53.208;6.582;2022-10-16T16:21:52;11.93;;;2.30;;
54189;SDS011;40340;53.208;6.582;2022-10-16T16:24:18;12.10;;;2.63;;
54189;SDS011;40340;53.208;6.582;2022-10-16T16:26:44;11.77;;;2.92;;
54189;SDS011;40340;53.208;6.582;2022-10-16T16:29:13;9.33;;;3.10;;
54189;SDS011;40340;53.208;6.582;2022-10-16T16:31:40;12.02;;;4.50;;
54189;SDS011;40340;53.208;6.582;2022-10-16T16:34:06;15.53;;;6.37;;
54189;SDS011;40340;53.208;6.582;2022-10-16T16:36:32;15.97;;;6.17;;
54189;SDS011;40340;53.208;6.582;2022-10-16T16:38:58;15.68;;;7.53;;
54189;SDS011;40340;53.208;6.582;2022-10-16T16:41:25;17.27;;;7.33;;
54189;SDS011;40340;53.208;6.582;2022-10-16T16:43:52;14.40;;;6.68;;
54189;SDS011;40340;53.208;6.582;2022-10-16T16:46:19;16.73;;;6.68;;
54189;SDS011;40340;53.208;6.582;2022-10-16T16:48:45;13.43;;;5.70;;
54189;SDS011;40340;53.208;6.582;2022-10-16T16:51:16;10.80;;;5.10;;
54189;SDS011;40340;53.208;6.582;2022-10-16T16:53:45;17.92;;;5.03;;
54189;SDS011;40340;53.208;6.582;2022-10-16T16:56:12;10.35;;;4.82;;
54189;SDS011;40340;53.208;6.582;2022-10-16T16:58:38;13.67;;;4.60;;
54189;SDS011;40340;53.208;6.582;2022-10-16T17:01:04;16.30;;;4.37;;
54189;SDS011;40340;53.208;6.582;2022-10-16T17:03:31;13.97;;;4.03;;
54189;SDS011;40340;53.208;6.582;2022-10-16T17:05:59;12.27;;;4.43;;